sensor_id;sensor_type;location;lat;lon;timestamp;temperature;humidity
5334;DHT22;2689;50.954;7.116;2022-10-23T00:00:17;13.80;99.90
5334;DHT22;2689;50.954;7.116;2022-10-23T00:02:44;13.80;99.90
5334;DHT22;2689;50.954;7.116;2022-10-23T00:05:12;13.80;99.90
5334;DHT22;2689;50.954;7.116;2022-10-23T00:07:39;13.80;99.90
5334;DHT22;2689;50.954;7.116;2022-10-23T00:10:06;13.80;99.90
5334;DHT22;2689;50.954;7.116;2022-10-23T00:12:33;13.80;99.90
5334;DHT22;2689;50.954;7.116;2022-10-23T00:15:00;13.80;99.90
5334;DHT22;2689;50.954;7.116;2022-10-23T00:17:26;13.80;99.90
5334;DHT22;2689;50.954;7.116;2022-10-23T00:19:57;13.80;99.90
5334;DHT22;2689;50.954;7.116;2022-10-23T00:22:25;13.80;99.90
5334;DHT22;2689;50.954;7.116;2022-10-23T00:24:52;13.80;99.90
5334;DHT22;2689;50.954;7.116;2022-10-23T00:27:18;13.80;99.90
5334;DHT22;2689;50.954;7.116;2022-10-23T00:29:45;13.80;99.90
5334;DHT22;2689;50.954;7.116;2022-10-23T00:32:12;13.80;99.90
5334;DHT22;2689;50.954;7.116;2022-10-23T00:34:39;13.80;99.90
5334;DHT22;2689;50.954;7.116;2022-10-23T00:37:05;13.80;99.90
5334;DHT22;2689;50.954;7.116;2022-10-23T00:39:34;13.80;99.90
5334;DHT22;2689;50.954;7.116;2022-10-23T00:42:01;13.80;99.90
5334;DHT22;2689;50.954;7.116;2022-10-23T00:45:12;13.80;99.90
5334;DHT22;2689;50.954;7.116;2022-10-23T00:47:39;13.80;99.90
5334;DHT22;2689;50.954;7.116;2022-10-23T00:50:06;13.80;99.90
5334;DHT22;2689;50.954;7.116;2022-10-23T00:52:36;13.70;99.90
5334;DHT22;2689;50.954;7.116;2022-10-23T00:55:06;13.70;99.90
5334;DHT22;2689;50.954;7.116;2022-10-23T00:57:33;13.70;99.90
5334;DHT22;2689;50.954;7.116;2022-10-23T01:00:00;13.70;99.90
5334;DHT22;2689;50.954;7.116;2022-10-23T01:02:27;13.70;99.90
5334;DHT22;2689;50.954;7.116;2022-10-23T01:04:53;13.80;99.90
5334;DHT22;2689;50.954;7.116;2022-10-23T01:07:27;13.70;99.90
5334;DHT22;2689;50.954;7.116;2022-10-23T01:10:02;13.70;99.90
5334;DHT22;2689;50.954;7.116;2022-10-23T01:12:39;13.70;99.90
5334;DHT22;2689;50.954;7.116;2022-10-23T01:15:14;13.80;99.90
5334;DHT22;2689;50.954;7.116;2022-10-23T01:17:45;13.70;99.90
5334;DHT22;2689;50.954;7.116;2022-10-23T01:20:27;13.70;99.90
5334;DHT22;2689;50.954;7.116;2022-10-23T01:23:26;13.70;99.90
5334;DHT22;2689;50.954;7.116;2022-10-23T01:26:22;13.70;99.90
5334;DHT22;2689;50.954;7.116;2022-10-23T01:28:55;13.70;99.90
5334;DHT22;2689;50.954;7.116;2022-10-23T01:31:29;13.70;99.90
5334;DHT22;2689;50.954;7.116;2022-10-23T01:34:02;13.70;99.90
5334;DHT22;2689;50.954;7.116;2022-10-23T01:36:31;13.70;99.90
5334;DHT22;2689;50.954;7.116;2022-10-23T01:39:02;13.80;99.90
5334;DHT22;2689;50.954;7.116;2022-10-23T01:41:34;13.80;99.90
5334;DHT22;2689;50.954;7.116;2022-10-23T01:44:09;13.80;99.90
5334;DHT22;2689;50.954;7.116;2022-10-23T01:46:37;13.80;99.90
5334;DHT22;2689;50.954;7.116;2022-10-23T01:49:08;13.70;99.90
5334;DHT22;2689;50.954;7.116;2022-10-23T01:51:37;13.70;99.90
5334;DHT22;2689;50.954;7.116;2022-10-23T01:54:07;13.80;99.90
5334;DHT22;2689;50.954;7.116;2022-10-23T01:56:37;13.80;99.90
5334;DHT22;2689;50.954;7.116;2022-10-23T01:59:10;13.80;99.90
5334;DHT22;2689;50.954;7.116;2022-10-23T02:01:40;13.70;99.90
5334;DHT22;2689;50.954;7.116;2022-10-23T02:04:10;13.70;99.90
5334;DHT22;2689;50.954;7.116;2022-10-23T02:06:38;13.70;99.90
5334;DHT22;2689;50.954;7.116;2022-10-23T02:09:05;13.70;99.90
5334;DHT22;2689;50.954;7.116;2022-10-23T02:11:36;13.70;99.90
5334;DHT22;2689;50.954;7.116;2022-10-23T02:14:10;13.70;99.90
5334;DHT22;2689;50.954;7.116;2022-10-23T02:16:41;13.60;99.90
5334;DHT22;2689;50.954;7.116;2022-10-23T02:19:16;13.70;99.90
5334;DHT22;2689;50.954;7.116;2022-10-23T02:21:51;13.70;99.90
5334;DHT22;2689;50.954;7.116;2022-10-23T02:24:24;13.70;99.90
5334;DHT22;2689;50.954;7.116;2022-10-23T02:26:56;13.70;99.90
5334;DHT22;2689;50.954;7.116;2022-10-23T02:29:28;13.70;99.90
5334;DHT22;2689;50.954;7.116;2022-10-23T02:31:55;13.70;99.90
5334;DHT22;2689;50.954;7.116;2022-10-23T02:34:22;13.70;99.90
5334;DHT22;2689;50.954;7.116;2022-10-23T02:36:49;13.70;99.90
5334;DHT22;2689;50.954;7.116;2022-10-23T02:39:16;13.80;99.90
5334;DHT22;2689;50.954;7.116;2022-10-23T02:41:45;13.80;99.90
5334;DHT22;2689;50.954;7.116;2022-10-23T02:44:23;13.80;99.90
5334;DHT22;2689;50.954;7.116;2022-10-23T02:47:02;13.80;99.90
5334;DHT22;2689;50.954;7.116;2022-10-23T02:49:36;13.80;99.90
5334;DHT22;2689;50.954;7.116;2022-10-23T02:52:11;13.90;99.90
5334;DHT22;2689;50.954;7.116;2022-10-23T02:54:49;14.00;99.90
5334;DHT22;2689;50.954;7.116;2022-10-23T02:57:23;14.00;99.90
5334;DHT22;2689;50.954;7.116;2022-10-23T03:00:00;14.00;99.90
5334;DHT22;2689;50.954;7.116;2022-10-23T03:02:33;14.00;99.90
5334;DHT22;2689;50.954;7.116;2022-10-23T03:05:04;14.10;99.90
5334;DHT22;2689;50.954;7.116;2022-10-23T03:07:32;14.10;99.90
5334;DHT22;2689;50.954;7.116;2022-10-23T03:09:59;14.10;99.90
5334;DHT22;2689;50.954;7.116;2022-10-23T03:12:26;14.10;99.90
5334;DHT22;2689;50.954;7.116;2022-10-23T03:14:53;14.10;99.90
5334;DHT22;2689;50.954;7.116;2022-10-23T03:17:20;14.20;99.90
5334;DHT22;2689;50.954;7.116;2022-10-23T03:19:48;14.20;99.90
5334;DHT22;2689;50.954;7.116;2022-10-23T03:22:15;14.10;99.90
5334;DHT22;2689;50.954;7.116;2022-10-23T03:24:42;14.10;99.90
5334;DHT22;2689;50.954;7.116;2022-10-23T03:27:09;14.10;99.90
5334;DHT22;2689;50.954;7.116;2022-10-23T03:29:36;14.10;99.90
5334;DHT22;2689;50.954;7.116;2022-10-23T03:32:03;14.20;99.90
5334;DHT22;2689;50.954;7.116;2022-10-23T03:34:30;14.20;99.90
5334;DHT22;2689;50.954;7.116;2022-10-23T03:36:58;14.20;99.90
5334;DHT22;2689;50.954;7.116;2022-10-23T03:39:25;14.30;99.90
5334;DHT22;2689;50.954;7.116;2022-10-23T03:41:52;14.20;99.90
5334;DHT22;2689;50.954;7.116;2022-10-23T03:44:19;14.30;99.90
5334;DHT22;2689;50.954;7.116;2022-10-23T03:46:46;14.20;99.90
5334;DHT22;2689;50.954;7.116;2022-10-23T03:49:13;14.30;99.90
5334;DHT22;2689;50.954;7.116;2022-10-23T03:51:39;14.20;99.90
5334;DHT22;2689;50.954;7.116;2022-10-23T03:54:07;14.30;99.90
5334;DHT22;2689;50.954;7.116;2022-10-23T03:56:34;14.20;99.90
5334;DHT22;2689;50.954;7.116;2022-10-23T03:59:01;14.30;99.90
5334;DHT22;2689;50.954;7.116;2022-10-23T04:01:28;14.30;99.90
5334;DHT22;2689;50.954;7.116;2022-10-23T04:03:55;14.30;99.90
5334;DHT22;2689;50.954;7.116;2022-10-23T04:06:22;14.30;99.90
5334;DHT22;2689;50.954;7.116;2022-10-23T04:08:49;14.30;99.90
5334;DHT22;2689;50.954;7.116;2022-10-23T04:11:17;14.30;99.90
5334;DHT22;2689;50.954;7.116;2022-10-23T04:13:44;14.20;99.90
5334;DHT22;2689;50.954;7.116;2022-10-23T04:16:11;14.30;99.90
5334;DHT22;2689;50.954;7.116;2022-10-23T04:18:39;14.20;99.90
5334;DHT22;2689;50.954;7.116;2022-10-23T04:21:06;14.30;99.90
5334;DHT22;2689;50.954;7.116;2022-10-23T04:23:33;14.20;99.90
5334;DHT22;2689;50.954;7.116;2022-10-23T04:26:00;14.20;99.90
5334;DHT22;2689;50.954;7.116;2022-10-23T04:28:28;14.20;99.90
5334;DHT22;2689;50.954;7.116;2022-10-23T04:30:55;14.20;99.90
5334;DHT22;2689;50.954;7.116;2022-10-23T04:33:22;14.20;99.90
5334;DHT22;2689;50.954;7.116;2022-10-23T04:35:49;14.20;99.90
5334;DHT22;2689;50.954;7.116;2022-10-23T04:38:16;14.20;99.90
5334;DHT22;2689;50.954;7.116;2022-10-23T04:40:43;14.20;99.90
5334;DHT22;2689;50.954;7.116;2022-10-23T04:43:10;14.20;99.90
5334;DHT22;2689;50.954;7.116;2022-10-23T04:45:38;14.20;99.90
5334;DHT22;2689;50.954;7.116;2022-10-23T04:48:05;14.20;99.90
5334;DHT22;2689;50.954;7.116;2022-10-23T04:50:32;14.20;99.90
5334;DHT22;2689;50.954;7.116;2022-10-23T04:52:59;14.20;99.90
5334;DHT22;2689;50.954;7.116;2022-10-23T04:55:26;14.20;99.90
5334;DHT22;2689;50.954;7.116;2022-10-23T04:57:53;14.20;99.90
5334;DHT22;2689;50.954;7.116;2022-10-23T05:00:20;14.20;99.90
5334;DHT22;2689;50.954;7.116;2022-10-23T05:02:48;14.20;99.90
5334;DHT22;2689;50.954;7.116;2022-10-23T05:05:15;14.20;99.90
5334;DHT22;2689;50.954;7.116;2022-10-23T05:07:42;14.20;99.90
5334;DHT22;2689;50.954;7.116;2022-10-23T05:10:09;14.20;99.90
5334;DHT22;2689;50.954;7.116;2022-10-23T05:12:36;14.20;99.90
5334;DHT22;2689;50.954;7.116;2022-10-23T05:15:03;14.30;99.90
5334;DHT22;2689;50.954;7.116;2022-10-23T05:17:34;14.30;99.90
5334;DHT22;2689;50.954;7.116;2022-10-23T05:20:08;14.30;99.90
5334;DHT22;2689;50.954;7.116;2022-10-23T05:22:39;14.30;99.90
5334;DHT22;2689;50.954;7.116;2022-10-23T05:25:07;14.30;99.90
5334;DHT22;2689;50.954;7.116;2022-10-23T05:27:34;14.30;99.90
5334;DHT22;2689;50.954;7.116;2022-10-23T05:30:00;14.30;99.90
5334;DHT22;2689;50.954;7.116;2022-10-23T05:32:29;14.30;99.90
5334;DHT22;2689;50.954;7.116;2022-10-23T05:34:57;14.30;99.90
5334;DHT22;2689;50.954;7.116;2022-10-23T05:37:26;14.20;99.90
5334;DHT22;2689;50.954;7.116;2022-10-23T05:39:53;14.20;99.90
5334;DHT22;2689;50.954;7.116;2022-10-23T05:42:20;14.20;99.90
5334;DHT22;2689;50.954;7.116;2022-10-23T05:44:46;14.20;99.90
5334;DHT22;2689;50.954;7.116;2022-10-23T05:47:17;14.20;99.90
5334;DHT22;2689;50.954;7.116;2022-10-23T05:49:45;14.20;99.90
5334;DHT22;2689;50.954;7.116;2022-10-23T05:52:12;14.20;99.90
5334;DHT22;2689;50.954;7.116;2022-10-23T05:54:40;14.20;99.90
5334;DHT22;2689;50.954;7.116;2022-10-23T05:57:07;14.20;99.90
5334;DHT22;2689;50.954;7.116;2022-10-23T05:59:34;14.10;99.90
5334;DHT22;2689;50.954;7.116;2022-10-23T06:02:01;14.10;99.90
5334;DHT22;2689;50.954;7.116;2022-10-23T06:04:29;14.10;99.90
5334;DHT22;2689;50.954;7.116;2022-10-23T06:06:56;14.10;99.90
5334;DHT22;2689;50.954;7.116;2022-10-23T06:09:23;14.10;99.90
5334;DHT22;2689;50.954;7.116;2022-10-23T06:11:51;14.10;99.90
5334;DHT22;2689;50.954;7.116;2022-10-23T06:14:18;14.10;99.90
5334;DHT22;2689;50.954;7.116;2022-10-23T06:16:45;14.10;99.90
5334;DHT22;2689;50.954;7.116;2022-10-23T06:19:12;14.10;99.90
5334;DHT22;2689;50.954;7.116;2022-10-23T06:21:39;14.10;99.90
5334;DHT22;2689;50.954;7.116;2022-10-23T06:24:07;14.10;99.90
5334;DHT22;2689;50.954;7.116;2022-10-23T06:26:44;14.10;99.90
5334;DHT22;2689;50.954;7.116;2022-10-23T06:29:12;14.10;99.90
5334;DHT22;2689;50.954;7.116;2022-10-23T06:31:39;14.20;99.90
5334;DHT22;2689;50.954;7.116;2022-10-23T06:34:06;14.20;99.90
5334;DHT22;2689;50.954;7.116;2022-10-23T06:36:34;14.30;99.90
5334;DHT22;2689;50.954;7.116;2022-10-23T06:39:02;14.30;99.90
5334;DHT22;2689;50.954;7.116;2022-10-23T06:41:29;14.40;99.90
5334;DHT22;2689;50.954;7.116;2022-10-23T06:43:56;14.40;99.90
5334;DHT22;2689;50.954;7.116;2022-10-23T06:46:24;14.50;99.90
5334;DHT22;2689;50.954;7.116;2022-10-23T06:48:54;14.60;99.90
5334;DHT22;2689;50.954;7.116;2022-10-23T06:51:21;14.70;99.90
5334;DHT22;2689;50.954;7.116;2022-10-23T06:53:49;14.80;99.90
5334;DHT22;2689;50.954;7.116;2022-10-23T06:56:16;14.90;99.90
5334;DHT22;2689;50.954;7.116;2022-10-23T06:58:43;15.00;99.90
5334;DHT22;2689;50.954;7.116;2022-10-23T07:01:15;15.10;99.90
5334;DHT22;2689;50.954;7.116;2022-10-23T07:03:43;15.10;99.90
5334;DHT22;2689;50.954;7.116;2022-10-23T07:06:10;15.20;99.90
5334;DHT22;2689;50.954;7.116;2022-10-23T07:08:37;15.20;99.90
5334;DHT22;2689;50.954;7.116;2022-10-23T07:11:05;15.30;99.90
5334;DHT22;2689;50.954;7.116;2022-10-23T07:13:33;15.30;99.90
5334;DHT22;2689;50.954;7.116;2022-10-23T07:16:09;15.30;99.90
5334;DHT22;2689;50.954;7.116;2022-10-23T07:18:35;15.40;99.90
5334;DHT22;2689;50.954;7.116;2022-10-23T07:21:04;15.50;99.90
5334;DHT22;2689;50.954;7.116;2022-10-23T07:23:31;15.50;99.90
5334;DHT22;2689;50.954;7.116;2022-10-23T07:26:03;15.60;99.90
5334;DHT22;2689;50.954;7.116;2022-10-23T07:28:30;15.70;99.90
5334;DHT22;2689;50.954;7.116;2022-10-23T07:30:57;15.70;99.90
5334;DHT22;2689;50.954;7.116;2022-10-23T07:33:24;15.80;99.90
5334;DHT22;2689;50.954;7.116;2022-10-23T07:35:51;15.90;99.90
5334;DHT22;2689;50.954;7.116;2022-10-23T07:38:19;16.00;99.90
5334;DHT22;2689;50.954;7.116;2022-10-23T07:40:46;16.10;99.90
5334;DHT22;2689;50.954;7.116;2022-10-23T07:43:13;16.20;99.90
5334;DHT22;2689;50.954;7.116;2022-10-23T07:45:41;16.30;99.90
5334;DHT22;2689;50.954;7.116;2022-10-23T07:48:08;16.40;99.90
5334;DHT22;2689;50.954;7.116;2022-10-23T07:50:36;16.50;99.90
5334;DHT22;2689;50.954;7.116;2022-10-23T07:53:03;16.60;99.90
5334;DHT22;2689;50.954;7.116;2022-10-23T07:55:32;16.60;99.90
5334;DHT22;2689;50.954;7.116;2022-10-23T07:57:59;16.90;99.90
5334;DHT22;2689;50.954;7.116;2022-10-23T08:00:26;17.10;99.90
5334;DHT22;2689;50.954;7.116;2022-10-23T08:02:53;17.20;99.90
5334;DHT22;2689;50.954;7.116;2022-10-23T08:05:28;17.60;99.90
5334;DHT22;2689;50.954;7.116;2022-10-23T08:08:17;18.10;99.90
5334;DHT22;2689;50.954;7.116;2022-10-23T08:14:01;20.10;99.90
5334;DHT22;2689;50.954;7.116;2022-10-23T08:16:36;21.30;95.90
5334;DHT22;2689;50.954;7.116;2022-10-23T08:19:06;21.20;93.50
5334;DHT22;2689;50.954;7.116;2022-10-23T08:21:35;20.70;94.40
5334;DHT22;2689;50.954;7.116;2022-10-23T08:24:06;20.20;95.20
5334;DHT22;2689;50.954;7.116;2022-10-23T08:26:39;19.80;96.50
5334;DHT22;2689;50.954;7.116;2022-10-23T08:29:06;19.60;96.80
5334;DHT22;2689;50.954;7.116;2022-10-23T08:31:32;19.40;97.90
5334;DHT22;2689;50.954;7.116;2022-10-23T08:33:59;19.30;98.30
5334;DHT22;2689;50.954;7.116;2022-10-23T09:02:20;19.60;98.70
5334;DHT22;2689;50.954;7.116;2022-10-23T09:04:51;20.10;97.50
5334;DHT22;2689;50.954;7.116;2022-10-23T09:07:24;20.10;96.30
5334;DHT22;2689;50.954;7.116;2022-10-23T09:10:06;20.00;96.40
5334;DHT22;2689;50.954;7.116;2022-10-23T09:12:38;19.80;96.40
5334;DHT22;2689;50.954;7.116;2022-10-23T09:15:18;19.60;97.20
5334;DHT22;2689;50.954;7.116;2022-10-23T09:17:51;19.60;97.40
5334;DHT22;2689;50.954;7.116;2022-10-23T09:20:21;19.80;97.40
5334;DHT22;2689;50.954;7.116;2022-10-23T09:22:52;20.30;97.10
5334;DHT22;2689;50.954;7.116;2022-10-23T09:25:24;20.60;96.40
5334;DHT22;2689;50.954;7.116;2022-10-23T09:27:54;21.20;95.80
5334;DHT22;2689;50.954;7.116;2022-10-23T09:30:36;21.80;94.20
5334;DHT22;2689;50.954;7.116;2022-10-23T09:33:16;22.50;93.10
5334;DHT22;2689;50.954;7.116;2022-10-23T09:35:54;22.90;91.50
5334;DHT22;2689;50.954;7.116;2022-10-23T09:38:26;22.60;90.80
5334;DHT22;2689;50.954;7.116;2022-10-23T09:40:55;22.20;91.40
5334;DHT22;2689;50.954;7.116;2022-10-23T09:43:23;22.10;92.70
5334;DHT22;2689;50.954;7.116;2022-10-23T09:45:56;22.20;92.00
5334;DHT22;2689;50.954;7.116;2022-10-23T09:48:26;22.00;92.30
5334;DHT22;2689;50.954;7.116;2022-10-23T09:50:54;22.00;92.50
5334;DHT22;2689;50.954;7.116;2022-10-23T09:53:32;21.90;92.10
5334;DHT22;2689;50.954;7.116;2022-10-23T09:56:02;21.70;92.30
5334;DHT22;2689;50.954;7.116;2022-10-23T09:58:31;21.70;92.90
5334;DHT22;2689;50.954;7.116;2022-10-23T10:00:59;21.60;93.70
5334;DHT22;2689;50.954;7.116;2022-10-23T10:03:27;21.60;93.40
5334;DHT22;2689;50.954;7.116;2022-10-23T10:05:57;21.50;93.50
5334;DHT22;2689;50.954;7.116;2022-10-23T10:08:31;21.50;94.10
5334;DHT22;2689;50.954;7.116;2022-10-23T10:11:03;21.30;94.00
5334;DHT22;2689;50.954;7.116;2022-10-23T10:13:45;21.20;94.30
5334;DHT22;2689;50.954;7.116;2022-10-23T10:16:26;21.20;95.20
5334;DHT22;2689;50.954;7.116;2022-10-23T10:19:01;21.00;94.90
5334;DHT22;2689;50.954;7.116;2022-10-23T10:21:33;20.90;95.10
5334;DHT22;2689;50.954;7.116;2022-10-23T10:24:05;20.70;94.90
5334;DHT22;2689;50.954;7.116;2022-10-23T10:26:37;20.50;95.80
5334;DHT22;2689;50.954;7.116;2022-10-23T10:29:14;20.30;95.80
5334;DHT22;2689;50.954;7.116;2022-10-23T10:31:50;20.10;96.20
5334;DHT22;2689;50.954;7.116;2022-10-23T10:34:27;20.00;96.70
5334;DHT22;2689;50.954;7.116;2022-10-23T10:36:56;19.80;96.90
5334;DHT22;2689;50.954;7.116;2022-10-23T10:39:34;19.70;97.20
5334;DHT22;2689;50.954;7.116;2022-10-23T10:42:19;19.60;97.10
5334;DHT22;2689;50.954;7.116;2022-10-23T10:45:13;19.60;97.80
5334;DHT22;2689;50.954;7.116;2022-10-23T10:47:51;19.50;97.80
5334;DHT22;2689;50.954;7.116;2022-10-23T10:50:27;19.50;97.80
5334;DHT22;2689;50.954;7.116;2022-10-23T10:53:01;19.50;98.20
5334;DHT22;2689;50.954;7.116;2022-10-23T10:55:34;19.50;98.20
5334;DHT22;2689;50.954;7.116;2022-10-23T10:58:07;19.40;98.00
5334;DHT22;2689;50.954;7.116;2022-10-23T11:00:38;19.30;97.80
5334;DHT22;2689;50.954;7.116;2022-10-23T11:03:21;19.20;98.10
5334;DHT22;2689;50.954;7.116;2022-10-23T11:05:54;19.20;98.10
5334;DHT22;2689;50.954;7.116;2022-10-23T11:08:26;19.20;98.40
5334;DHT22;2689;50.954;7.116;2022-10-23T11:10:59;19.20;98.70
5334;DHT22;2689;50.954;7.116;2022-10-23T11:13:35;19.20;98.70
5334;DHT22;2689;50.954;7.116;2022-10-23T11:16:07;19.20;98.30
5334;DHT22;2689;50.954;7.116;2022-10-23T11:18:35;19.10;98.50
5334;DHT22;2689;50.954;7.116;2022-10-23T11:21:18;19.10;98.70
5334;DHT22;2689;50.954;7.116;2022-10-23T11:26:56;19.00;98.70
5334;DHT22;2689;50.954;7.116;2022-10-23T11:30:00;18.90;98.90
5334;DHT22;2689;50.954;7.116;2022-10-23T11:32:44;18.90;99.10
5334;DHT22;2689;50.954;7.116;2022-10-23T11:35:36;18.80;99.20
5334;DHT22;2689;50.954;7.116;2022-10-23T11:38:15;18.70;99.60
5334;DHT22;2689;50.954;7.116;2022-10-23T11:40:44;18.70;99.90
5334;DHT22;2689;50.954;7.116;2022-10-23T11:43:11;18.70;99.90
5334;DHT22;2689;50.954;7.116;2022-10-23T11:45:39;18.80;99.90
5334;DHT22;2689;50.954;7.116;2022-10-23T11:48:20;18.90;99.90
5334;DHT22;2689;50.954;7.116;2022-10-23T11:50:52;18.90;99.90
5334;DHT22;2689;50.954;7.116;2022-10-23T11:53:35;18.90;99.90
5334;DHT22;2689;50.954;7.116;2022-10-23T11:56:20;19.10;99.90
5334;DHT22;2689;50.954;7.116;2022-10-23T11:58:50;19.20;99.90
5334;DHT22;2689;50.954;7.116;2022-10-23T12:01:31;19.30;99.90
5334;DHT22;2689;50.954;7.116;2022-10-23T12:04:01;19.50;99.90
5334;DHT22;2689;50.954;7.116;2022-10-23T12:06:31;19.70;99.70
5334;DHT22;2689;50.954;7.116;2022-10-23T12:09:22;19.90;99.30
5334;DHT22;2689;50.954;7.116;2022-10-23T12:12:03;20.00;98.60
5334;DHT22;2689;50.954;7.116;2022-10-23T12:14:33;20.10;98.50
5334;DHT22;2689;50.954;7.116;2022-10-23T12:17:00;20.20;97.80
5334;DHT22;2689;50.954;7.116;2022-10-23T12:19:29;20.30;97.70
5334;DHT22;2689;50.954;7.116;2022-10-23T12:21:59;20.30;97.50
5334;DHT22;2689;50.954;7.116;2022-10-23T12:24:50;20.30;97.40
5334;DHT22;2689;50.954;7.116;2022-10-23T12:27:24;20.30;97.30
5334;DHT22;2689;50.954;7.116;2022-10-23T12:30:02;20.40;97.20
5334;DHT22;2689;50.954;7.116;2022-10-23T12:32:51;20.40;97.00
5334;DHT22;2689;50.954;7.116;2022-10-23T12:38:26;20.40;96.90
5334;DHT22;2689;50.954;7.116;2022-10-23T12:41:00;20.40;96.80
5334;DHT22;2689;50.954;7.116;2022-10-23T12:43:30;20.50;96.90
5334;DHT22;2689;50.954;7.116;2022-10-23T12:46:02;20.40;97.10
5334;DHT22;2689;50.954;7.116;2022-10-23T12:48:32;20.40;96.80
5334;DHT22;2689;50.954;7.116;2022-10-23T12:50:58;20.30;97.00
5334;DHT22;2689;50.954;7.116;2022-10-23T12:53:25;20.40;97.10
5334;DHT22;2689;50.954;7.116;2022-10-23T12:55:58;20.30;97.00
5334;DHT22;2689;50.954;7.116;2022-10-23T12:58:27;20.20;97.10
5334;DHT22;2689;50.954;7.116;2022-10-23T13:01:00;20.20;97.60
5334;DHT22;2689;50.954;7.116;2022-10-23T13:03:29;20.20;97.50
5334;DHT22;2689;50.954;7.116;2022-10-23T13:05:57;20.10;97.30
5334;DHT22;2689;50.954;7.116;2022-10-23T13:08:31;20.00;97.70
5334;DHT22;2689;50.954;7.116;2022-10-23T13:11:01;19.90;97.80
5334;DHT22;2689;50.954;7.116;2022-10-23T13:13:28;19.80;98.20
5334;DHT22;2689;50.954;7.116;2022-10-23T13:15:55;19.80;98.40
5334;DHT22;2689;50.954;7.116;2022-10-23T13:18:22;19.70;98.80
5334;DHT22;2689;50.954;7.116;2022-10-23T13:20:57;19.60;99.00
5334;DHT22;2689;50.954;7.116;2022-10-23T13:23:27;19.60;99.40
5334;DHT22;2689;50.954;7.116;2022-10-23T13:25:58;19.60;99.10
5334;DHT22;2689;50.954;7.116;2022-10-23T13:28:28;19.60;99.30
5334;DHT22;2689;50.954;7.116;2022-10-23T13:31:03;19.60;99.70
5334;DHT22;2689;50.954;7.116;2022-10-23T13:33:33;19.60;99.50
5334;DHT22;2689;50.954;7.116;2022-10-23T13:36:03;19.60;99.60
5334;DHT22;2689;50.954;7.116;2022-10-23T13:38:32;19.60;99.80
5334;DHT22;2689;50.954;7.116;2022-10-23T13:41:01;19.70;99.50
5334;DHT22;2689;50.954;7.116;2022-10-23T13:43:31;19.80;99.70
5334;DHT22;2689;50.954;7.116;2022-10-23T13:45:59;19.90;99.20
5334;DHT22;2689;50.954;7.116;2022-10-23T13:48:27;19.90;99.20
5334;DHT22;2689;50.954;7.116;2022-10-23T13:51:00;19.90;99.20
5334;DHT22;2689;50.954;7.116;2022-10-23T13:53:28;19.90;99.40
5334;DHT22;2689;50.954;7.116;2022-10-23T13:55:56;19.90;99.40
5334;DHT22;2689;50.954;7.116;2022-10-23T13:58:22;19.80;99.40
5334;DHT22;2689;50.954;7.116;2022-10-23T14:00:51;19.80;99.70
5334;DHT22;2689;50.954;7.116;2022-10-23T14:03:18;19.80;99.90
5334;DHT22;2689;50.954;7.116;2022-10-23T14:05:48;19.80;99.90
5334;DHT22;2689;50.954;7.116;2022-10-23T14:08:21;19.70;99.90
5334;DHT22;2689;50.954;7.116;2022-10-23T14:10:48;19.60;99.90
5334;DHT22;2689;50.954;7.116;2022-10-23T14:13:15;19.60;99.90
5334;DHT22;2689;50.954;7.116;2022-10-23T14:15:42;19.60;99.90
5334;DHT22;2689;50.954;7.116;2022-10-23T14:18:10;19.50;99.90
5334;DHT22;2689;50.954;7.116;2022-10-23T14:20:37;19.50;99.90
5334;DHT22;2689;50.954;7.116;2022-10-23T14:23:04;19.50;99.90
5334;DHT22;2689;50.954;7.116;2022-10-23T14:25:31;19.40;99.90
5334;DHT22;2689;50.954;7.116;2022-10-23T14:27:58;19.40;99.90
5334;DHT22;2689;50.954;7.116;2022-10-23T14:30:25;19.40;99.90
5334;DHT22;2689;50.954;7.116;2022-10-23T14:32:52;19.40;99.90
5334;DHT22;2689;50.954;7.116;2022-10-23T14:35:20;19.40;99.90
5334;DHT22;2689;50.954;7.116;2022-10-23T14:37:47;19.30;99.90
5334;DHT22;2689;50.954;7.116;2022-10-23T14:40:13;19.40;99.90
5334;DHT22;2689;50.954;7.116;2022-10-23T14:42:40;19.30;99.90
5334;DHT22;2689;50.954;7.116;2022-10-23T14:45:08;19.20;99.90
5334;DHT22;2689;50.954;7.116;2022-10-23T14:47:35;19.20;99.90
5334;DHT22;2689;50.954;7.116;2022-10-23T14:50:02;19.10;99.90
5334;DHT22;2689;50.954;7.116;2022-10-23T14:52:30;19.10;99.90
5334;DHT22;2689;50.954;7.116;2022-10-23T14:54:57;19.10;99.90
5334;DHT22;2689;50.954;7.116;2022-10-23T14:57:26;19.00;99.90
5334;DHT22;2689;50.954;7.116;2022-10-23T14:59:52;19.00;99.90
5334;DHT22;2689;50.954;7.116;2022-10-23T15:02:19;19.00;99.90
5334;DHT22;2689;50.954;7.116;2022-10-23T15:04:46;18.90;99.90
5334;DHT22;2689;50.954;7.116;2022-10-23T15:07:13;18.90;99.90
5334;DHT22;2689;50.954;7.116;2022-10-23T15:09:41;18.90;99.90
5334;DHT22;2689;50.954;7.116;2022-10-23T15:12:08;18.80;99.90
5334;DHT22;2689;50.954;7.116;2022-10-23T15:14:35;18.80;99.90
5334;DHT22;2689;50.954;7.116;2022-10-23T15:17:02;18.80;99.90
5334;DHT22;2689;50.954;7.116;2022-10-23T15:19:28;18.80;99.90
5334;DHT22;2689;50.954;7.116;2022-10-23T15:21:55;18.70;99.90
5334;DHT22;2689;50.954;7.116;2022-10-23T15:24:22;18.70;99.90
5334;DHT22;2689;50.954;7.116;2022-10-23T15:26:50;18.70;99.90
5334;DHT22;2689;50.954;7.116;2022-10-23T15:29:18;18.70;99.90
5334;DHT22;2689;50.954;7.116;2022-10-23T15:31:48;18.70;99.90
5334;DHT22;2689;50.954;7.116;2022-10-23T15:34:19;18.60;99.90
5334;DHT22;2689;50.954;7.116;2022-10-23T15:36:46;18.60;99.90
5334;DHT22;2689;50.954;7.116;2022-10-23T15:39:16;18.60;99.90
5334;DHT22;2689;50.954;7.116;2022-10-23T15:41:43;18.60;99.90
5334;DHT22;2689;50.954;7.116;2022-10-23T15:44:13;18.60;99.90
5334;DHT22;2689;50.954;7.116;2022-10-23T15:46:41;18.60;99.90
5334;DHT22;2689;50.954;7.116;2022-10-23T15:49:08;18.60;99.90
5334;DHT22;2689;50.954;7.116;2022-10-23T15:51:35;18.60;99.90
5334;DHT22;2689;50.954;7.116;2022-10-23T15:54:03;18.60;99.90
5334;DHT22;2689;50.954;7.116;2022-10-23T15:56:30;18.50;99.90
5334;DHT22;2689;50.954;7.116;2022-10-23T15:58:57;18.50;99.90
5334;DHT22;2689;50.954;7.116;2022-10-23T16:01:25;18.50;99.90
5334;DHT22;2689;50.954;7.116;2022-10-23T16:03:53;18.50;99.90
5334;DHT22;2689;50.954;7.116;2022-10-23T16:06:21;18.40;99.90
5334;DHT22;2689;50.954;7.116;2022-10-23T16:08:48;18.40;99.90
5334;DHT22;2689;50.954;7.116;2022-10-23T16:11:16;18.40;99.90
5334;DHT22;2689;50.954;7.116;2022-10-23T16:13:43;18.30;99.90
5334;DHT22;2689;50.954;7.116;2022-10-23T16:16:10;18.40;99.90
5334;DHT22;2689;50.954;7.116;2022-10-23T16:18:39;18.30;99.90
5334;DHT22;2689;50.954;7.116;2022-10-23T16:21:16;18.40;99.90
5334;DHT22;2689;50.954;7.116;2022-10-23T16:23:43;18.30;99.90
5334;DHT22;2689;50.954;7.116;2022-10-23T16:26:10;18.30;99.90
5334;DHT22;2689;50.954;7.116;2022-10-23T16:28:37;18.30;99.90
5334;DHT22;2689;50.954;7.116;2022-10-23T16:31:08;18.10;99.90
5334;DHT22;2689;50.954;7.116;2022-10-23T16:33:35;18.10;99.90
5334;DHT22;2689;50.954;7.116;2022-10-23T16:36:04;18.00;99.90
5334;DHT22;2689;50.954;7.116;2022-10-23T16:38:31;17.90;99.90
5334;DHT22;2689;50.954;7.116;2022-10-23T16:40:58;17.80;99.90
5334;DHT22;2689;50.954;7.116;2022-10-23T16:43:26;17.80;99.90
5334;DHT22;2689;50.954;7.116;2022-10-23T16:46:01;17.80;99.90
5334;DHT22;2689;50.954;7.116;2022-10-23T16:48:28;17.80;99.90
5334;DHT22;2689;50.954;7.116;2022-10-23T16:50:55;17.70;99.90
5334;DHT22;2689;50.954;7.116;2022-10-23T16:53:24;17.70;99.90
5334;DHT22;2689;50.954;7.116;2022-10-23T16:55:54;17.70;99.90